Time;durP1;ratioP1;P1;durP2;ratioP2;P2;SDS_P1;SDS_P2;PMS_P1;PMS_P2;Temp;Humidity;BMP_temperature;BMP_pressure;BME280_temperature;BME280_humidity;BME280_pressure;Samples;Min_cycle;Max_cycle;Signal;HPM_P1;HPM_P2
2023/09/01 00:01:15;;;;;;;4.85;1.65;;;20.30;94.30;;;;;;5016726;28;45123;-60
2023/09/01 00:03:42;;;;;;;3.90;1.88;;;20.20;95.30;;;;;;5014208;28;45243;-60
2023/09/01 00:06:15;;;;;;;3.88;1.38;;;20.30;94.70;;;;;;5016139;28;47038;-60
2023/09/01 00:08:43;;;;;;;5.55;1.73;;;20.20;94.70;;;;;;5019059;28;45750;-60
2023/09/01 00:11:10;;;;;;;4.65;1.40;;;20.20;94.70;;;;;;5022355;28;45103;-60
2023/09/01 00:13:38;;;;;;;4.03;1.55;;;20.20;95.00;;;;;;5022874;28;45246;-60
2023/09/01 00:16:05;;;;;;;6.85;1.50;;;20.40;94.90;;;;;;5019181;28;45195;-60
2023/09/01 00:18:32;;;;;;;3.45;1.45;;;20.40;94.70;;;;;;5024303;28;44663;-60
2023/09/01 00:21:00;;;;;;;7.05;1.65;;;20.40;94.50;;;;;;5023060;28;45215;-60
2023/09/01 00:23:27;;;;;;;3.85;1.33;;;20.40;94.50;;;;;;5020670;28;45162;-59
2023/09/01 00:25:55;;;;;;;3.25;1.50;;;20.30;94.50;;;;;;5023074;28;45215;-59
2023/09/01 00:28:22;;;;;;;3.45;1.38;;;20.30;94.90;;;;;;5021498;28;45292;-59
2023/09/01 00:30:54;;;;;;;5.10;1.70;;;20.20;95.10;;;;;;5018312;28;45104;-59
2023/09/01 00:33:21;;;;;;;5.60;1.42;;;20.30;94.70;;;;;;5016152;28;45104;-60
2023/09/01 00:35:51;;;;;;;3.53;1.33;;;20.30;95.50;;;;;;5011050;28;46368;-60
2023/09/01 00:38:18;;;;;;;5.07;1.40;;;20.30;95.00;;;;;;5021612;28;45449;-60
2023/09/01 00:40:44;;;;;;;3.33;1.52;;;20.40;94.50;;;;;;5024390;28;44620;-60
2023/09/01 00:43:11;;;;;;;3.17;1.20;;;20.30;95.00;;;;;;5022234;28;45076;-60
2023/09/01 00:45:38;;;;;;;4.82;1.67;;;20.40;95.00;;;;;;5022060;28;46213;-59
2023/09/01 00:48:08;;;;;;;2.25;1.13;;;20.50;94.70;;;;;;5021363;28;44709;-60
2023/09/01 00:50:36;;;;;;;4.30;1.38;;;20.50;94.60;;;;;;5019900;28;45183;-60
2023/09/01 00:53:05;;;;;;;4.25;1.23;;;20.50;94.40;;;;;;5022419;28;45103;-60
2023/09/01 00:55:32;;;;;;;4.95;1.40;;;20.50;94.30;;;;;;5016200;28;47606;-59
2023/09/01 00:58:00;;;;;;;4.50;1.55;;;20.50;94.70;;;;;;5017684;28;44747;-60
2023/09/01 01:00:27;;;;;;;5.13;1.70;;;20.50;94.30;;;;;;5004717;28;45226;-59
2023/09/01 01:02:54;;;;;;;4.20;0.95;;;20.40;94.60;;;;;;5003418;28;45116;-60
2023/09/01 01:05:28;;;;;;;6.43;1.67;;;20.40;94.70;;;;;;5006528;28;48042;-59
2023/09/01 01:08:01;;;;;;;5.13;1.73;;;20.50;94.30;;;;;;5010312;28;45112;-60
2023/09/01 01:10:35;;;;;;;3.70;1.63;;;20.50;94.30;;;;;;5006092;28;44670;-60
2023/09/01 01:13:10;;;;;;;3.78;1.58;;;20.40;94.40;;;;;;5004233;28;45191;-59
2023/09/01 01:15:39;;;;;;;3.08;1.55;;;20.40;94.20;;;;;;5006477;28;47066;-60
2023/09/01 01:18:11;;;;;;;4.97;1.50;;;20.40;94.20;;;;;;5015017;28;45179;-59
2023/09/01 01:20:40;;;;;;;5.15;1.50;;;20.30;94.20;;;;;;5023048;28;45161;-60
2023/09/01 01:23:11;;;;;;;5.45;2.00;;;20.30;94.50;;;;;;5019990;28;45360;-60
2023/09/01 01:25:37;;;;;;;5.63;1.80;;;20.40;94.90;;;;;;5021079;28;45273;-59
2023/09/01 01:28:09;;;;;;;4.55;1.52;;;20.40;94.20;;;;;;5022414;28;45353;-60
2023/09/01 01:30:36;;;;;;;3.28;1.33;;;20.50;94.30;;;;;;5020702;28;45287;-60
2023/09/01 01:33:04;;;;;;;6.35;1.50;;;20.60;94.40;;;;;;5020260;28;45152;-60
2023/09/01 01:35:38;;;;;;;2.67;1.70;;;20.40;94.50;;;;;;5022422;28;45235;-59
2023/09/01 01:38:14;;;;;;;3.60;1.42;;;20.40;94.20;;;;;;5020284;28;45130;-59
2023/09/01 01:40:44;;;;;;;5.63;1.38;;;20.50;94.30;;;;;;5013963;28;45108;-59
2023/09/01 01:43:12;;;;;;;3.85;1.70;;;20.50;94.30;;;;;;5022535;28;45338;-60
2023/09/01 01:45:42;;;;;;;4.85;1.40;;;20.40;94.00;;;;;;5021077;28;45172;-59
2023/09/01 01:48:09;;;;;;;3.65;1.70;;;20.40;94.20;;;;;;5019622;28;45791;-59
2023/09/01 01:50:36;;;;;;;3.55;1.80;;;20.50;94.30;;;;;;5019418;28;45338;-59
2023/09/01 01:53:05;;;;;;;2.78;1.50;;;20.50;94.40;;;;;;5022665;28;45041;-59
2023/09/01 01:55:33;;;;;;;2.72;1.20;;;20.50;94.30;;;;;;5018368;28;47187;-59
2023/09/01 01:58:00;;;;;;;4.15;1.50;;;20.60;94.30;;;;;;5017401;28;45765;-59
2023/09/01 02:00:27;;;;;;;4.70;1.92;;;20.60;94.50;;;;;;5021751;28;45027;-60
2023/09/01 02:02:54;;;;;;;2.45;1.33;;;20.60;94.40;;;;;;5022246;28;45292;-59
2023/09/01 02:05:22;;;;;;;4.68;1.88;;;20.60;94.30;;;;;;5007366;28;45222;-60
2023/09/01 02:07:48;;;;;;;4.53;1.20;;;20.50;94.30;;;;;;5021510;28;45091;-59
2023/09/01 02:10:15;;;;;;;3.78;1.45;;;20.60;94.30;;;;;;5023340;28;45102;-59
2023/09/01 02:12:43;;;;;;;3.47;1.75;;;20.60;94.40;;;;;;5023298;28;45117;-59
2023/09/01 02:15:11;;;;;;;5.35;1.80;;;20.60;94.80;;;;;;5012069;28;46197;-60
2023/09/01 02:17:38;;;;;;;5.85;1.92;;;20.60;94.30;;;;;;5015016;28;45107;-60
2023/09/01 02:20:16;;;;;;;7.25;1.85;;;20.60;94.40;;;;;;5022598;28;44566;-60
2023/09/01 02:22:43;;;;;;;4.40;1.65;;;20.50;94.80;;;;;;5017044;28;45289;-59
2023/09/01 02:25:10;;;;;;;2.53;1.50;;;20.50;94.70;;;;;;5023380;28;46581;-59
2023/09/01 02:27:39;;;;;;;4.97;1.60;;;20.50;94.80;;;;;;5021906;28;45290;-59
2023/09/01 02:30:09;;;;;;;4.07;1.80;;;20.50;94.60;;;;;;5020187;28;45135;-59
2023/09/01 02:32:36;;;;;;;2.97;1.60;;;20.60;94.80;;;;;;5001729;28;45438;-59
2023/09/01 02:35:05;;;;;;;3.00;1.25;;;20.60;94.70;;;;;;5014593;28;47022;-60
2023/09/01 02:37:33;;;;;;;3.13;1.42;;;20.60;94.90;;;;;;5020381;28;45160;-60
2023/09/01 02:40:00;;;;;;;2.92;1.50;;;20.50;94.70;;;;;;5020592;28;45142;-60
2023/09/01 02:42:27;;;;;;;2.17;1.40;;;20.50;95.10;;;;;;5019509;28;45346;-59
2023/09/01 02:44:54;;;;;;;3.50;1.48;;;20.50;94.80;;;;;;5009789;28;45200;-60
2023/09/01 02:47:22;;;;;;;4.70;1.65;;;20.40;95.30;;;;;;5020524;28;45083;-60
2023/09/01 02:49:49;;;;;;;5.72;1.58;;;20.50;94.80;;;;;;5026126;28;45148;-59
2023/09/01 02:52:16;;;;;;;4.93;1.60;;;20.50;95.30;;;;;;5023873;28;45164;-59
2023/09/01 02:54:43;;;;;;;3.60;1.50;;;20.60;95.10;;;;;;5018624;28;45278;-59
2023/09/01 02:57:09;;;;;;;4.25;1.60;;;20.60;94.90;;;;;;5025171;28;45368;-59
2023/09/01 02:59:37;;;;;;;2.63;1.42;;;20.60;94.80;;;;;;5022428;28;45254;-59
2023/09/01 03:02:04;;;;;;;5.30;1.73;;;20.60;95.00;;;;;;5025813;28;45054;-60
2023/09/01 03:04:32;;;;;;;4.55;1.70;;;20.60;95.00;;;;;;5023529;28;47284;-59
2023/09/01 03:06:59;;;;;;;3.70;1.70;;;20.60;95.20;;;;;;5024784;28;45194;-59
2023/09/01 03:09:26;;;;;;;5.32;1.60;;;20.60;94.90;;;;;;5024426;28;45224;-59
2023/09/01 03:11:53;;;;;;;5.47;1.35;;;20.60;95.00;;;;;;5026339;28;45292;-60
2023/09/01 03:14:19;;;;;;;3.40;1.42;;;20.60;95.10;;;;;;5020491;28;45173;-59
2023/09/01 03:16:46;;;;;;;3.85;1.60;;;20.60;94.90;;;;;;5019032;28;45098;-59
2023/09/01 03:19:13;;;;;;;3.03;1.60;;;20.60;95.10;;;;;;5006436;28;45233;-60
2023/09/01 03:21:41;;;;;;;2.60;1.40;;;20.60;95.10;;;;;;5021525;28;45330;-59
2023/09/01 03:24:08;;;;;;;3.65;1.67;;;20.60;95.20;;;;;;5016316;28;46367;-59
2023/09/01 03:26:35;;;;;;;3.60;1.40;;;20.60;95.00;;;;;;5023551;28;45226;-59
2023/09/01 03:29:02;;;;;;;3.28;1.38;;;20.60;95.10;;;;;;5024364;28;45052;-59
2023/09/01 03:31:29;;;;;;;2.53;1.30;;;20.60;95.20;;;;;;5023017;28;45084;-60
2023/09/01 03:33:56;;;;;;;4.55;1.73;;;20.60;95.40;;;;;;5022995;28;46601;-59
2023/09/01 03:36:23;;;;;;;3.00;1.40;;;20.60;95.30;;;;;;5021856;28;45113;-59
2023/09/01 03:38:51;;;;;;;3.85;1.42;;;20.70;95.40;;;;;;5024372;28;45120;-59
2023/09/01 03:41:18;;;;;;;1.98;1.30;;;20.70;95.40;;;;;;5020806;28;45086;-59
2023/09/01 03:43:44;;;;;;;3.70;1.60;;;20.70;95.40;;;;;;5023873;28;46231;-59
2023/09/01 03:46:11;;;;;;;2.60;1.23;;;20.70;95.40;;;;;;5022683;28;45273;-59
2023/09/01 03:48:38;;;;;;;3.38;1.35;;;20.70;95.40;;;;;;5022679;28;45207;-59
2023/09/01 03:51:09;;;;;;;2.78;1.38;;;20.70;95.50;;;;;;5020385;28;45159;-59
2023/09/01 03:53:36;;;;;;;4.85;1.55;;;20.70;95.70;;;;;;5024459;28;47999;-59
2023/09/01 03:56:08;;;;;;;2.65;1.63;;;20.70;96.00;;;;;;5025506;28;45123;-59
2023/09/01 03:58:35;;;;;;;3.28;1.55;;;20.60;96.10;;;;;;5020797;28;45374;-59
2023/09/01 04:01:05;;;;;;;4.85;1.42;;;20.60;96.30;;;;;;5017474;28;45346;-59
2023/09/01 04:03:31;;;;;;;2.50;1.65;;;20.60;96.30;;;;;;5015430;28;46627;-59
2023/09/01 04:05:58;;;;;;;3.10;1.63;;;20.60;96.40;;;;;;5023239;28;45194;-59
2023/09/01 04:08:25;;;;;;;2.85;1.70;;;20.70;96.20;;;;;;5022498;28;45255;-59
2023/09/01 04:10:52;;;;;;;3.97;1.50;;;20.70;96.20;;;;;;5016498;28;44655;-61
2023/09/01 04:13:21;;;;;;;3.97;2.00;;;20.70;96.10;;;;;;5023291;28;47373;-63
2023/09/01 04:15:48;;;;;;;3.45;1.70;;;20.70;96.20;;;;;;5024795;28;45316;-62
2023/09/01 04:18:15;;;;;;;4.80;1.77;;;20.70;96.30;;;;;;5024621;28;45180;-60
2023/09/01 04:20:47;;;;;;;2.92;1.90;;;20.70;96.40;;;;;;5022427;28;45286;-60
2023/09/01 04:23:14;;;;;;;2.63;1.60;;;20.70;96.40;;;;;;5015437;28;45111;-60
2023/09/01 04:25:44;;;;;;;4.10;1.88;;;20.70;96.40;;;;;;5020829;28;45915;-60
2023/09/01 04:28:11;;;;;;;5.60;1.88;;;20.70;96.50;;;;;;5019079;28;45059;-60
2023/09/01 04:30:39;;;;;;;4.00;2.17;;;20.70;96.50;;;;;;5023299;28;45175;-59
2023/09/01 04:33:06;;;;;;;5.53;1.88;;;20.70;96.70;;;;;;5022815;28;47028;-59
2023/09/01 04:35:34;;;;;;;3.35;1.70;;;20.70;96.60;;;;;;5021712;28;45263;-60
2023/09/01 04:38:01;;;;;;;8.43;1.98;;;20.70;96.60;;;;;;5016785;28;45192;-60
2023/09/01 04:40:28;;;;;;;3.72;1.98;;;20.70;96.60;;;;;;5020426;28;45210;-59
2023/09/01 04:42:55;;;;;;;2.67;1.73;;;20.70;96.60;;;;;;5018120;28;48201;-60
2023/09/01 04:45:22;;;;;;;3.90;2.03;;;20.70;96.80;;;;;;5024348;28;45080;-60
2023/09/01 04:47:51;;;;;;;2.55;1.65;;;20.70;96.90;;;;;;5020864;28;45095;-61
2023/09/01 04:50:18;;;;;;;2.50;1.52;;;20.60;96.90;;;;;;5023744;28;45147;-62
2023/09/01 04:52:44;;;;;;;2.63;1.83;;;20.70;96.70;;;;;;5023608;28;47620;-61
2023/09/01 04:55:11;;;;;;;3.13;1.67;;;20.90;96.50;;;;;;5019954;28;45096;-60
2023/09/01 04:57:38;;;;;;;3.13;1.33;;;21.00;95.80;;;;;;5024036;28;45239;-60
2023/09/01 05:00:15;;;;;;;2.60;1.23;;;21.10;95.40;;;;;;5023087;28;45037;-62
2023/09/01 05:02:42;;;;;;;3.92;1.60;;;21.20;95.10;;;;;;5021757;28;46971;-62
2023/09/01 05:05:11;;;;;;;5.22;1.98;;;21.30;94.70;;;;;;5021228;28;45372;-63
2023/09/01 05:07:37;;;;;;;5.15;1.55;;;21.10;95.10;;;;;;5016443;28;45131;-61
2023/09/01 05:10:05;;;;;;;3.38;1.67;;;20.90;95.60;;;;;;5024758;28;45079;-60
2023/09/01 05:12:32;;;;;;;3.50;1.42;;;20.70;96.20;;;;;;5022461;28;47297;-60
2023/09/01 05:14:59;;;;;;;3.00;1.45;;;20.70;96.40;;;;;;5015703;28;45057;-60
2023/09/01 05:17:26;;;;;;;5.53;2.15;;;20.70;96.50;;;;;;5009551;28;44638;-60
2023/09/01 05:19:52;;;;;;;6.60;1.52;;;20.70;96.50;;;;;;5022125;28;45124;-59
2023/09/01 05:22:21;;;;;;;2.75;1.55;;;20.70;96.60;;;;;;5018530;28;46581;-60
2023/09/01 05:24:48;;;;;;;4.57;1.52;;;20.80;96.60;;;;;;5017021;28;45654;-60
2023/09/01 05:27:18;;;;;;;3.55;1.95;;;20.80;96.60;;;;;;5021888;28;45298;-60
2023/09/01 05:29:45;;;;;;;4.47;1.73;;;20.80;96.70;;;;;;5016528;28;44660;-59
2023/09/01 05:32:12;;;;;;;1.80;1.42;;;20.70;96.70;;;;;;5014249;28;45272;-59
2023/09/01 05:34:39;;;;;;;3.50;2.15;;;20.80;96.70;;;;;;5019815;28;45139;-59
2023/09/01 05:37:07;;;;;;;4.28;1.80;;;20.70;96.90;;;;;;5017385;28;45096;-59
2023/09/01 05:39:36;;;;;;;2.97;1.48;;;20.70;96.90;;;;;;5021374;28;45560;-59
2023/09/01 05:42:03;;;;;;;4.22;1.73;;;20.80;97.00;;;;;;5014920;28;46262;-59
2023/09/01 05:44:30;;;;;;;2.75;1.73;;;20.90;96.70;;;;;;5022772;28;45186;-59
2023/09/01 05:46:57;;;;;;;2.88;1.40;;;20.80;96.90;;;;;;5020103;28;45204;-59
2023/09/01 05:49:24;;;;;;;5.45;1.50;;;20.70;97.00;;;;;;5020734;28;45384;-59
2023/09/01 05:51:51;;;;;;;4.15;1.60;;;20.80;96.90;;;;;;5021007;28;45434;-59
2023/09/01 05:54:19;;;;;;;2.13;1.42;;;20.80;96.90;;;;;;5015969;28;44739;-59
2023/09/01 05:56:47;;;;;;;3.17;1.38;;;20.80;97.10;;;;;;5023963;28;44617;-59
2023/09/01 05:59:14;;;;;;;4.28;1.58;;;20.80;97.00;;;;;;5022364;28;45167;-59
2023/09/01 06:01:41;;;;;;;6.40;1.70;;;20.80;97.10;;;;;;5017999;28;47124;-60
2023/09/01 06:04:08;;;;;;;4.53;1.75;;;20.90;97.00;;;;;;5016605;28;45558;-59
2023/09/01 06:06:36;;;;;;;1.60;1.20;;;20.80;97.00;;;;;;5023113;28;45178;-59
2023/09/01 06:09:04;;;;;;;2.30;1.52;;;20.80;97.00;;;;;;5015919;28;45382;-59
2023/09/01 06:11:31;;;;;;;2.03;1.30;;;20.80;97.00;;;;;;5016039;28;45389;-59
2023/09/01 06:13:59;;;;;;;3.00;1.63;;;20.80;97.20;;;;;;5015789;28;44627;-59
2023/09/01 06:16:26;;;;;;;2.60;1.40;;;20.80;97.30;;;;;;5028106;28;45246;-60
2023/09/01 06:18:53;;;;;;;2.72;1.50;;;20.80;97.20;;;;;;5014955;28;45155;-59
2023/09/01 06:21:20;;;;;;;2.33;1.40;;;20.90;97.20;;;;;;5008853;28;45196;-59
2023/09/01 06:23:48;;;;;;;2.58;1.58;;;20.90;97.10;;;;;;5020190;28;45747;-59
2023/09/01 06:26:17;;;;;;;2.67;1.38;;;20.90;96.90;;;;;;5006914;28;45176;-59
2023/09/01 06:28:44;;;;;;;1.95;1.10;;;20.90;97.00;;;;;;5026546;28;45319;-59
2023/09/01 06:31:13;;;;;;;2.00;1.50;;;20.90;97.10;;;;;;5022274;28;46275;-59
2023/09/01 06:33:42;;;;;;;2.45;1.33;;;20.90;97.10;;;;;;5022343;28;45138;-59
2023/09/01 06:36:09;;;;;;;2.20;1.45;;;20.90;97.30;;;;;;5025219;28;45325;-59
2023/09/01 06:38:36;;;;;;;2.17;1.40;;;21.00;97.20;;;;;;5023172;28;45061;-59
2023/09/01 06:41:03;;;;;;;1.98;1.27;;;21.00;97.10;;;;;;5012917;28;47363;-59
2023/09/01 06:43:30;;;;;;;2.65;1.17;;;20.90;97.20;;;;;;5017232;28;45159;-60
2023/09/01 06:45:57;;;;;;;3.25;1.65;;;21.00;97.20;;;;;;5017984;28;45427;-59
2023/09/01 06:48:26;;;;;;;2.95;1.58;;;21.00;97.10;;;;;;5028823;28;44865;-59
2023/09/01 06:50:52;;;;;;;3.35;1.38;;;20.90;97.20;;;;;;5020579;28;46651;-59
2023/09/01 06:53:19;;;;;;;2.10;1.38;;;20.90;97.20;;;;;;5019660;28;45190;-59
2023/09/01 06:55:47;;;;;;;2.05;1.38;;;21.00;97.20;;;;;;5024086;28;45096;-59
2023/09/01 06:58:14;;;;;;;2.95;1.40;;;21.00;97.30;;;;;;5016990;28;44814;-59
2023/09/01 07:00:41;;;;;;;3.42;1.50;;;21.00;97.20;;;;;;5004783;28;45368;-59
2023/09/01 07:03:08;;;;;;;2.13;1.08;;;20.90;97.40;;;;;;5016387;28;45120;-63
2023/09/01 07:05:36;;;;;;;2.97;1.45;;;21.00;97.50;;;;;;5019002;28;45203;-62
2023/09/01 07:08:03;;;;;;;3.10;1.52;;;21.00;97.00;;;;;;5023824;28;45286;-62
2023/09/01 07:10:30;;;;;;;3.22;1.40;;;21.00;97.20;;;;;;5025685;28;47074;-61
2023/09/01 07:12:56;;;;;;;2.83;1.40;;;21.10;97.00;;;;;;5019631;28;45099;-60
2023/09/01 07:15:23;;;;;;;1.75;1.20;;;21.10;97.20;;;;;;5022684;28;44651;-60
2023/09/01 07:17:50;;;;;;;3.58;1.55;;;21.00;97.30;;;;;;5009793;28;45144;-60
2023/09/01 07:20:17;;;;;;;1.52;1.20;;;21.00;97.30;;;;;;5017019;28;46459;-60
2023/09/01 07:22:45;;;;;;;3.03;1.60;;;21.10;97.20;;;;;;5020138;28;45052;-60
2023/09/01 07:25:13;;;;;;;2.78;1.23;;;21.10;97.20;;;;;;5020044;28;45096;-60
2023/09/01 07:27:40;;;;;;;3.25;1.70;;;21.20;97.00;;;;;;5017752;28;45167;-60
2023/09/01 07:30:13;;;;;;;4.05;1.65;;;21.20;96.90;;;;;;5023224;28;45127;-59
2023/09/01 07:32:40;;;;;;;2.63;1.42;;;21.20;97.00;;;;;;5014643;28;45271;-59
2023/09/01 07:35:07;;;;;;;3.38;1.60;;;21.10;97.20;;;;;;5015367;28;45079;-59
2023/09/01 07:37:34;;;;;;;2.28;1.52;;;21.10;97.30;;;;;;5017478;28;45081;-59
2023/09/01 07:40:04;;;;;;;5.18;1.35;;;21.10;97.20;;;;;;5020523;28;46313;-59
2023/09/01 07:42:31;;;;;;;3.05;1.63;;;21.30;97.00;;;;;;5018920;28;45170;-59
2023/09/01 07:44:58;;;;;;;3.35;1.58;;;21.20;97.00;;;;;;5029531;28;45324;-59
2023/09/01 07:47:25;;;;;;;3.75;1.60;;;21.30;97.30;;;;;;5017450;28;44801;-60
2023/09/01 07:49:51;;;;;;;2.83;1.48;;;21.20;97.20;;;;;;5017408;28;46315;-59
2023/09/01 07:52:18;;;;;;;3.60;1.58;;;21.30;97.10;;;;;;5023581;28;45176;-59
2023/09/01 07:54:45;;;;;;;3.22;1.70;;;21.30;97.10;;;;;;5020428;28;45274;-59
2023/09/01 07:57:13;;;;;;;3.38;1.40;;;21.40;97.40;;;;;;5016736;28;45240;-59
2023/09/01 07:59:40;;;;;;;2.35;1.50;;;21.40;97.60;;;;;;5018812;28;46229;-60
2023/09/01 08:02:07;;;;;;;3.60;1.73;;;21.30;97.80;;;;;;5022063;28;44666;-59
2023/09/01 08:04:34;;;;;;;3.22;1.30;;;21.30;97.90;;;;;;5017835;28;45137;-59
2023/09/01 08:07:01;;;;;;;2.45;1.35;;;21.40;98.10;;;;;;5013425;28;45139;-59
2023/09/01 08:09:28;;;;;;;2.08;1.70;;;21.30;98.30;;;;;;5014222;28;46273;-59
2023/09/01 08:11:55;;;;;;;5.22;1.92;;;21.30;98.10;;;;;;5022083;28;45373;-59
2023/09/01 08:14:23;;;;;;;2.22;1.50;;;21.30;98.20;;;;;;5023106;28;45207;-59
2023/09/01 08:16:50;;;;;;;3.22;1.80;;;21.30;98.50;;;;;;5015867;28;45188;-60
2023/09/01 08:19:17;;;;;;;2.33;1.45;;;21.30;98.40;;;;;;5019400;28;46999;-60
2023/09/01 08:21:43;;;;;;;2.47;1.42;;;21.50;97.60;;;;;;5017390;28;45094;-60
2023/09/01 08:24:11;;;;;;;3.03;1.30;;;21.50;97.30;;;;;;5020929;28;45231;-59
2023/09/01 08:26:37;;;;;;;4.10;1.45;;;21.60;97.00;;;;;;5012015;28;45226;-59
2023/09/01 08:29:04;;;;;;;2.65;1.60;;;21.70;96.40;;;;;;5023985;28;45278;-64
2023/09/01 08:31:33;;;;;;;3.80;1.50;;;21.70;97.30;;;;;;5012921;28;45130;-65
2023/09/01 08:33:59;;;;;;;5.55;1.33;;;21.50;96.80;;;;;;5018335;28;45257;-65
2023/09/01 08:36:28;;;;;;;6.97;2.25;;;21.60;96.10;;;;;;5019261;28;45399;-64
2023/09/01 08:38:55;;;;;;;3.50;1.67;;;21.50;97.50;;;;;;5023786;28;46275;-64
2023/09/01 08:41:24;;;;;;;7.60;1.73;;;21.30;99.20;;;;;;5017914;28;45167;-64
2023/09/01 08:43:55;;;;;;;3.55;1.80;;;21.20;99.90;;;;;;5024382;28;45120;-66
2023/09/01 08:46:23;;;;;;;5.00;2.03;;;21.10;99.90;;;;;;5024693;28;45069;-66
2023/09/01 08:48:52;;;;;;;5.07;1.60;;;21.00;99.90;;;;;;5018334;28;47193;-65
2023/09/01 08:51:21;;;;;;;4.30;1.35;;;21.10;99.90;;;;;;5013372;28;45111;-66
2023/09/01 08:53:48;;;;;;;4.85;1.33;;;21.30;99.20;;;;;;5023218;28;45164;-65
2023/09/01 08:56:15;;;;;;;4.70;1.63;;;21.50;98.30;;;;;;5022924;28;45287;-65
2023/09/01 08:58:44;;;;;;;5.28;1.92;;;21.40;99.40;;;;;;5024168;28;45198;-68
2023/09/01 09:01:13;;;;;;;6.32;2.00;;;21.30;99.90;;;;;;5017093;28;45278;-66
2023/09/01 09:03:40;;;;;;;4.28;1.65;;;21.20;99.90;;;;;;5010055;28;45338;-63
2023/09/01 09:06:12;;;;;;;3.20;1.50;;;21.10;99.90;;;;;;5018732;28;45152;-62
2023/09/01 09:08:39;;;;;;;4.80;2.17;;;21.00;99.90;;;;;;5014684;28;45198;-62
2023/09/01 09:11:13;;;;;;;2.85;1.77;;;21.20;99.90;;;;;;5016970;28;45083;-62
2023/09/01 09:13:40;;;;;;;2.22;1.45;;;21.10;99.90;;;;;;5021726;28;45145;-62
2023/09/01 09:16:11;;;;;;;3.80;1.70;;;21.10;99.90;;;;;;5013952;28;45326;-62
2023/09/01 09:18:40;;;;;;;3.15;1.65;;;21.10;99.90;;;;;;5018330;28;45464;-62
2023/09/01 09:21:25;;;;;;;2.55;1.52;;;21.20;99.90;;;;;;5024219;28;45139;-65
2023/09/01 09:23:52;;;;;;;4.95;1.65;;;21.10;99.90;;;;;;5006272;28;45090;-65
2023/09/01 09:26:25;;;;;;;3.72;1.45;;;21.00;99.90;;;;;;5019294;28;44794;-63
2023/09/01 09:28:52;;;;;;;6.35;1.40;;;21.10;99.90;;;;;;5017100;28;46584;-62
2023/09/01 09:31:19;;;;;;;3.95;1.48;;;21.10;99.90;;;;;;5020124;28;45172;-61
2023/09/01 09:33:46;;;;;;;2.17;1.33;;;21.10;99.90;;;;;;5018922;28;45583;-62
2023/09/01 09:36:12;;;;;;;2.05;1.35;;;21.10;99.90;;;;;;5011854;28;45265;-62
2023/09/01 09:38:42;;;;;;;3.00;1.45;;;21.10;99.90;;;;;;5023031;28;46200;-61
2023/09/01 09:41:09;;;;;;;2.83;1.50;;;21.10;99.90;;;;;;5019971;28;45207;-61
2023/09/01 09:43:46;;;;;;;2.63;1.50;;;21.00;99.90;;;;;;5017411;28;45156;-61
2023/09/01 09:46:14;;;;;;;2.67;1.30;;;21.00;99.90;;;;;;5011991;28;45233;-61
2023/09/01 09:48:41;;;;;;;3.13;1.45;;;21.00;99.90;;;;;;5018306;28;46476;-61
2023/09/01 09:51:10;;;;;;;2.60;1.25;;;21.00;99.90;;;;;;5017583;28;45196;-61
2023/09/01 09:53:38;;;;;;;1.17;1.00;;;21.20;99.90;;;;;;5018188;28;45184;-61
2023/09/01 09:56:19;;;;;;;2.30;1.05;;;21.40;99.90;;;;;;5013731;28;44690;-61
2023/09/01 09:58:48;;;;;;;2.05;1.20;;;21.30;99.90;;;;;;5004412;28;47358;-61
2023/09/01 10:01:18;;;;;;;1.98;1.02;;;21.10;99.90;;;;;;5019860;28;45320;-61
2023/09/01 10:03:47;;;;;;;1.40;1.00;;;21.10;99.90;;;;;;5021029;28;45224;-61
2023/09/01 10:06:16;;;;;;;3.63;1.00;;;21.10;99.90;;;;;;5015683;28;44717;-61
2023/09/01 10:08:43;;;;;;;2.75;0.85;;;21.10;99.90;;;;;;5021362;28;47641;-61
2023/09/01 10:11:14;;;;;;;1.95;1.15;;;21.20;99.90;;;;;;5020268;28;44618;-61
2023/09/01 10:13:44;;;;;;;1.90;1.05;;;21.20;99.90;;;;;;5020627;28;44624;-61
2023/09/01 10:16:11;;;;;;;1.67;0.93;;;21.20;99.90;;;;;;5021867;28;45406;-61
2023/09/01 10:18:39;;;;;;;1.35;0.80;;;21.20;99.90;;;;;;5020359;28;47344;-61
2023/09/01 10:21:06;;;;;;;1.00;0.80;;;21.20;99.90;;;;;;5018359;28;44625;-60
2023/09/01 10:23:34;;;;;;;1.20;0.90;;;21.10;99.90;;;;;;5019832;28;45095;-61
2023/09/01 10:26:24;;;;;;;5.60;0.90;;;21.10;99.90;;;;;;5021510;28;45271;-61
2023/09/01 10:28:59;;;;;;;1.80;1.10;;;21.10;99.90;;;;;;5022141;28;46526;-60
2023/09/01 10:31:27;;;;;;;2.35;0.95;;;21.20;99.90;;;;;;5017159;28;45101;-60
2023/09/01 10:34:08;;;;;;;2.42;1.00;;;21.10;99.90;;;;;;5018910;28;45154;-61
2023/09/01 10:36:35;;;;;;;1.48;0.77;;;21.10;99.90;;;;;;5017210;28;45416;-61
2023/09/01 10:39:22;;;;;;;1.48;0.98;;;21.10;99.90;;;;;;5021923;28;46529;-61
2023/09/01 10:41:55;;;;;;;2.97;0.90;;;21.10;99.90;;;;;;5012791;28;45177;-61
2023/09/01 10:44:22;;;;;;;1.13;0.70;;;21.10;99.90;;;;;;5021441;28;45097;-61
2023/09/01 10:46:49;;;;;;;1.70;0.57;;;21.20;99.90;;;;;;5013815;28;45156;-60
2023/09/01 10:49:15;;;;;;;2.67;0.80;;;21.20;99.90;;;;;;5018004;28;45345;-61
2023/09/01 10:51:43;;;;;;;1.38;0.80;;;21.30;99.90;;;;;;5020449;28;45271;-61
2023/09/01 10:54:44;;;;;;;1.88;0.88;;;21.30;99.90;;;;;;5021675;28;45132;-61
2023/09/01 10:57:15;;;;;;;1.00;0.70;;;21.30;99.90;;;;;;5021599;28;45166;-61
2023/09/01 10:59:41;;;;;;;1.35;0.77;;;21.20;99.90;;;;;;5019161;28;45402;-61
2023/09/01 11:02:19;;;;;;;1.38;0.63;;;21.20;99.90;;;;;;5015724;28;45200;-61
2023/09/01 11:04:46;;;;;;;2.85;0.90;;;21.20;99.90;;;;;;5021103;28;45135;-61
2023/09/01 11:07:14;;;;;;;1.80;0.70;;;21.20;99.90;;;;;;5006893;28;45198;-61
2023/09/01 11:09:57;;;;;;;1.33;0.77;;;21.20;99.90;;;;;;5020420;28;46207;-61
2023/09/01 11:12:31;;;;;;;3.92;0.90;;;21.20;99.90;;;;;;5025924;28;45233;-65
2023/09/01 11:15:00;;;;;;;1.13;0.80;;;21.20;99.90;;;;;;5027282;28;45036;-65
2023/09/01 11:17:40;;;;;;;2.70;1.00;;;21.20;99.90;;;;;;5024732;28;45440;-63
2023/09/01 11:20:09;;;;;;;1.00;0.80;;;21.20;99.90;;;;;;5025251;28;46235;-62
2023/09/01 11:22:38;;;;;;;1.23;1.00;;;21.20;99.90;;;;;;5024096;28;45183;-62
2023/09/01 11:25:08;;;;;;;0.95;0.70;;;21.20;99.90;;;;;;5025628;28;45075;-62
2023/09/01 11:27:37;;;;;;;3.45;0.88;;;21.20;99.90;;;;;;5024226;28;45290;-62
2023/09/01 11:30:04;;;;;;;1.35;0.77;;;21.30;99.90;;;;;;5025991;28;45172;-61
2023/09/01 11:32:31;;;;;;;1.92;1.10;;;21.30;99.90;;;;;;5022774;28;45162;-61
2023/09/01 11:34:59;;;;;;;1.30;0.90;;;21.30;99.90;;;;;;5024940;28;45050;-61
2023/09/01 11:37:36;;;;;;;1.92;1.00;;;21.30;99.90;;;;;;5024189;28;45146;-61
2023/09/01 11:40:07;;;;;;;1.48;1.00;;;21.30;99.90;;;;;;5018880;28;45196;-61
2023/09/01 11:42:36;;;;;;;1.45;1.00;;;21.30;99.90;;;;;;5010667;28;45278;-61
2023/09/01 11:45:05;;;;;;;1.40;1.00;;;21.30;99.90;;;;;;5021759;28;45289;-61
2023/09/01 11:47:32;;;;;;;2.20;1.20;;;21.30;99.90;;;;;;5009091;28;45479;-61
2023/09/01 11:49:59;;;;;;;2.05;1.25;;;21.30;99.90;;;;;;5019394;28;46210;-61
2023/09/01 11:52:26;;;;;;;2.08;1.42;;;21.30;99.90;;;;;;5015987;28;45222;-61
2023/09/01 11:54:53;;;;;;;1.50;1.10;;;21.30;99.90;;;;;;5019449;28;45247;-61
2023/09/01 11:57:21;;;;;;;2.05;1.10;;;21.30;99.90;;;;;;5023887;28;45164;-61
2023/09/01 11:59:50;;;;;;;1.58;0.82;;;21.30;99.90;;;;;;5015780;28;45186;-61
2023/09/01 12:02:18;;;;;;;1.42;1.00;;;21.30;99.90;;;;;;5011513;28;45181;-61
2023/09/01 12:04:46;;;;;;;2.42;1.38;;;21.40;99.90;;;;;;5019678;28;45129;-61
2023/09/01 12:07:26;;;;;;;1.83;0.93;;;21.40;99.90;;;;;;5020950;28;45159;-61
2023/09/01 12:09:53;;;;;;;1.55;1.25;;;21.40;99.90;;;;;;5022734;28;45192;-61
2023/09/01 12:12:21;;;;;;;1.00;0.80;;;21.40;99.90;;;;;;5017168;28;45060;-61
2023/09/01 12:14:50;;;;;;;2.55;0.88;;;21.40;99.90;;;;;;5005906;28;45238;-61
2023/09/01 12:17:18;;;;;;;1.63;1.02;;;21.40;99.90;;;;;;5016664;28;45354;-61
2023/09/01 12:19:47;;;;;;;2.13;1.08;;;21.40;99.90;;;;;;5014430;28;45158;-61
2023/09/01 12:22:14;;;;;;;1.15;0.80;;;21.30;99.90;;;;;;5021213;28;45187;-61
2023/09/01 12:24:54;;;;;;;1.73;0.90;;;21.40;99.90;;;;;;5024131;28;45104;-61
2023/09/01 12:27:21;;;;;;;2.28;1.00;;;21.40;99.90;;;;;;5022853;28;45318;-61
2023/09/01 12:29:50;;;;;;;1.08;0.80;;;21.50;99.90;;;;;;5023842;28;45082;-61
2023/09/01 12:32:19;;;;;;;3.28;0.90;;;21.50;99.90;;;;;;5021665;28;45096;-61
2023/09/01 12:34:46;;;;;;;0.93;0.70;;;21.40;99.90;;;;;;5023317;28;45155;-60
2023/09/01 12:37:12;;;;;;;2.30;0.90;;;21.40;99.90;;;;;;5018434;28;45287;-61
2023/09/01 12:39:39;;;;;;;1.42;0.82;;;21.50;99.90;;;;;;5024428;28;45158;-61
2023/09/01 12:42:06;;;;;;;0.90;0.60;;;21.40;99.90;;;;;;5021149;28;45218;-61
2023/09/01 12:44:33;;;;;;;1.83;0.70;;;21.50;99.90;;;;;;5021149;28;45091;-61
2023/09/01 12:47:02;;;;;;;1.17;0.80;;;21.50;99.90;;;;;;5015159;28;45234;-60
2023/09/01 12:49:30;;;;;;;1.05;0.95;;;21.50;99.90;;;;;;5014093;28;46324;-61
2023/09/01 12:51:56;;;;;;;1.20;0.85;;;21.50;99.90;;;;;;5016147;28;45081;-61
2023/09/01 12:54:23;;;;;;;1.75;1.00;;;21.40;99.90;;;;;;5009393;28;45320;-61